Climatologie pour Saint-Brevin les Pins
Jour • Résumé pour avril 3, 2017 Système :  Métrique    Anglais   Mixte
« - 1 jour
+ 1 jour »
Jour Semaine Mois Année Personnalisé
  Maximum : Minimum : Moyenne :
Température sous abri : 17.3 °C 4.1 °C 10.3 °C
Point de rosée : 11.6 °C 3.6 °C 7.6 °C
Humidité : 98 % 59 % 85 %
Vitesse du vent : 16.1 km/h 0.0 km/h 2.9 km/h
Rafale : 19.3 km/h - -
Direction :- - West
Pression : 1026.6 hPa 1025.3 hPa -
Précipitations : 0.0 mm    
Historical Graphs
 
 
Tableau de données pour avril 3, 2017
Heure Tempé Pt rosée Pression Vent Vitesse Rafale Humidité Taux pluie (/hr) Soleil
00:00 7.2 °C 6.4 °C 1026.0 hPa Calm     95 % 0.0 mm 0 W/m2
00:10 6.8 °C 5.9 °C 1026.0 hPa Calm     94 % 0.0 mm 0 W/m2
00:15 6.9 °C 6.2 °C 1026.0 hPa Calm     95 % 0.0 mm 0 W/m2
00:20 6.7 °C 6.0 °C 1026.0 hPa Calm     95 % 0.0 mm 0 W/m2
00:25 6.8 °C 6.1 °C 1026.0 hPa Calm     95 % 0.0 mm 0 W/m2
00:30 6.6 °C 5.7 °C 1026.0 hPa Calm     94 % 0.0 mm 0 W/m2
00:35 6.4 °C 5.6 °C 1026.0 hPa Calm     95 % 0.0 mm 0 W/m2
00:45 6.7 °C 5.9 °C 1026.0 hPa Calm     95 % 0.0 mm 0 W/m2
00:50 6.7 °C 6.1 °C 1026.0 hPa Calm     96 % 0.0 mm 0 W/m2
00:55 6.4 °C 5.6 °C 1026.0 hPa Calm     95 % 0.0 mm 0 W/m2
01:00 6.2 °C 5.4 °C 1026.0 hPa Calm     95 % 0.0 mm 0 W/m2
01:05 6.4 °C 5.9 °C 1026.0 hPa Calm     96 % 0.0 mm 0 W/m2
01:10 6.3 °C 5.5 °C 1026.0 hPa Calm     95 % 0.0 mm 0 W/m2
01:15 6.2 °C 5.4 °C 1026.0 hPa Calm     95 % 0.0 mm 0 W/m2
01:20 5.9 °C 5.1 °C 1026.0 hPa Calm     95 % 0.0 mm 0 W/m2
01:25 5.8 °C 5.2 °C 1026.0 hPa Calm     96 % 0.0 mm 0 W/m2
01:30 5.8 °C 5.0 °C 1026.0 hPa Calm   1.6 km/h 95 % 0.0 mm 0 W/m2
01:35 6.0 °C 5.4 °C 1026.0 hPa Calm   1.6 km/h 96 % 0.0 mm 0 W/m2
01:40 5.7 °C 5.0 °C 1026.0 hPa Calm     95 % 0.0 mm 0 W/m2
01:45 5.7 °C 4.9 °C 1026.0 hPa Calm     95 % 0.0 mm 0 W/m2
01:50 5.7 °C 5.1 °C 1026.0 hPa Calm     96 % 0.0 mm 0 W/m2
01:55 5.5 °C 4.9 °C 1026.0 hPa Calm     96 % 0.0 mm 0 W/m2
02:00 5.4 °C 4.8 °C 1026.0 hPa Calm   1.6 km/h 96 % 0.0 mm 0 W/m2
02:05 5.5 °C 4.9 °C 1026.0 hPa Calm   1.6 km/h 96 % 0.0 mm 0 W/m2
02:10 5.6 °C 5.0 °C 1026.0 hPa Calm   1.6 km/h 96 % 0.0 mm 0 W/m2
02:20 5.7 °C 5.1 °C 1025.6 hPa Calm   1.6 km/h 96 % 0.0 mm 0 W/m2
02:25 5.7 °C 5.1 °C 1025.6 hPa Calm   1.6 km/h 96 % 0.0 mm 0 W/m2
02:30 5.7 °C 5.1 °C 1026.0 hPa NW 1.6 km/h 1.6 km/h 96 % 0.0 mm 0 W/m2
02:35 5.7 °C 5.1 °C 1026.0 hPa Calm   3.2 km/h 96 % 0.0 mm 0 W/m2
02:40 5.7 °C 5.1 °C 1026.0 hPa Calm   3.2 km/h 96 % 0.0 mm 0 W/m2
02:45 5.8 °C 5.2 °C 1026.0 hPa Calm   1.6 km/h 96 % 0.0 mm 0 W/m2
02:50 5.8 °C 5.2 °C 1026.0 hPa Calm     96 % 0.0 mm 0 W/m2
02:55 5.9 °C 5.4 °C 1026.0 hPa Calm     96 % 0.0 mm 0 W/m2
03:05 5.6 °C 5.0 °C 1026.0 hPa Calm     96 % 0.0 mm 0 W/m2
03:10 5.8 °C 5.3 °C 1026.0 hPa Calm     97 % 0.0 mm 0 W/m2
03:15 5.6 °C 5.0 °C 1026.0 hPa Calm     96 % 0.0 mm 0 W/m2
03:20 5.8 °C 5.3 °C 1026.0 hPa Calm     97 % 0.0 mm 0 W/m2
03:25 5.4 °C 4.8 °C 1026.0 hPa Calm     96 % 0.0 mm 0 W/m2
03:30 5.2 °C 4.6 °C 1026.0 hPa Calm     96 % 0.0 mm 0 W/m2
03:35 5.2 °C 4.6 °C 1026.0 hPa Calm   1.6 km/h 96 % 0.0 mm 0 W/m2
03:40 4.9 °C 4.4 °C 1026.0 hPa Calm   1.6 km/h 96 % 0.0 mm 0 W/m2
03:45 4.8 °C 4.2 °C 1026.0 hPa Calm   1.6 km/h 96 % 0.0 mm 0 W/m2
03:50 4.8 °C 4.2 °C 1025.6 hPa Calm   3.2 km/h 96 % 0.0 mm 0 W/m2
03:55 4.8 °C 4.2 °C 1025.6 hPa Calm   3.2 km/h 96 % 0.0 mm 0 W/m2
04:00 4.8 °C 4.2 °C 1025.6 hPa Calm   3.2 km/h 96 % 0.0 mm 0 W/m2
04:05 4.7 °C 4.1 °C 1025.6 hPa North 1.6 km/h 3.2 km/h 96 % 0.0 mm 0 W/m2
04:10 4.9 °C 4.5 °C 1025.6 hPa Calm   3.2 km/h 97 % 0.0 mm 0 W/m2
04:15 5.1 °C 4.6 °C 1025.3 hPa Calm   3.2 km/h 97 % 0.0 mm 0 W/m2
04:20 5.3 °C 4.8 °C 1025.6 hPa Calm   1.6 km/h 97 % 0.0 mm 0 W/m2
04:25 5.4 °C 5.0 °C 1025.6 hPa Calm     97 % 0.0 mm 0 W/m2
04:35 5.7 °C 5.2 °C 1025.6 hPa Calm     97 % 0.0 mm 0 W/m2
04:40 5.6 °C 5.1 °C 1025.6 hPa Calm     97 % 0.0 mm 0 W/m2
04:45 5.2 °C 4.6 °C 1025.6 hPa Calm     96 % 0.0 mm 0 W/m2
04:50 5.0 °C 4.4 °C 1025.6 hPa Calm     96 % 0.0 mm 0 W/m2
04:55 5.2 °C 4.8 °C 1025.6 hPa Calm     97 % 0.0 mm 0 W/m2
05:00 5.1 °C 4.6 °C 1025.6 hPa Calm     97 % 0.0 mm 0 W/m2
05:05 5.1 °C 4.7 °C 1025.6 hPa Calm     97 % 0.0 mm 0 W/m2
05:10 4.8 °C 4.2 °C 1025.6 hPa Calm     96 % 0.0 mm 0 W/m2
05:15 4.9 °C 4.5 °C 1025.6 hPa Calm     97 % 0.0 mm 0 W/m2
05:20 4.9 °C 4.5 °C 1025.6 hPa Calm     97 % 0.0 mm 0 W/m2
05:25 5.0 °C 4.6 °C 1025.6 hPa Calm     97 % 0.0 mm 0 W/m2
05:30 5.0 °C 4.6 °C 1025.6 hPa Calm     97 % 0.0 mm 0 W/m2
05:35 4.8 °C 4.2 °C 1025.6 hPa Calm     96 % 0.0 mm 0 W/m2
05:40 4.8 °C 4.3 °C 1025.6 hPa Calm     97 % 0.0 mm 0 W/m2
05:45 4.7 °C 4.3 °C 1025.6 hPa Calm   1.6 km/h 97 % 0.0 mm 0 W/m2
05:50 4.7 °C 4.3 °C 1025.3 hPa Calm   1.6 km/h 97 % 0.0 mm 0 W/m2
05:55 4.8 °C 4.3 °C 1025.6 hPa Calm   1.6 km/h 97 % 0.0 mm 0 W/m2
06:05 4.8 °C 4.4 °C 1025.6 hPa Calm     97 % 0.0 mm 0 W/m2
06:10 4.8 °C 4.3 °C 1025.3 hPa Calm     97 % 0.0 mm 0 W/m2
06:15 4.7 °C 4.3 °C 1025.3 hPa Calm     97 % 0.0 mm 0 W/m2
06:20 4.7 °C 4.3 °C 1025.6 hPa Calm     97 % 0.0 mm 0 W/m2
06:25 4.8 °C 4.3 °C 1025.3 hPa Calm     97 % 0.0 mm 0 W/m2
06:30 4.7 °C 4.2 °C 1025.6 hPa Calm     97 % 0.0 mm 0 W/m2
06:35 4.6 °C 4.0 °C 1025.6 hPa Calm     96 % 0.0 mm 0 W/m2
06:40 4.7 °C 4.2 °C 1025.6 hPa Calm     97 % 0.0 mm 0 W/m2
06:45 4.6 °C 4.1 °C 1025.3 hPa Calm     97 % 0.0 mm 0 W/m2
06:50 4.4 °C 4.0 °C 1025.6 hPa North 1.6 km/h 1.6 km/h 97 % 0.0 mm 0 W/m2
06:55 4.5 °C 4.1 °C 1025.6 hPa Calm   1.6 km/h 97 % 0.0 mm 0 W/m2
07:00 4.6 °C 4.1 °C 1025.6 hPa Calm   1.6 km/h 97 % 0.0 mm 0 W/m2
07:05 4.4 °C 4.0 °C 1025.6 hPa Calm     97 % 0.0 mm 0 W/m2
07:10 4.6 °C 4.1 °C 1025.6 hPa Calm     97 % 0.0 mm 0 W/m2
07:15 4.2 °C 3.6 °C 1025.6 hPa Calm     96 % 0.0 mm 0 W/m2
07:20 4.1 °C 3.6 °C 1025.6 hPa Calm     97 % 0.0 mm 0 W/m2
07:25 4.3 °C 3.8 °C 1025.6 hPa Calm   1.6 km/h 97 % 0.0 mm 0 W/m2
07:30 4.2 °C 3.7 °C 1025.6 hPa Calm   1.6 km/h 97 % 0.0 mm 0 W/m2
07:35 4.3 °C 3.8 °C 1025.6 hPa Calm     97 % 0.0 mm 0 W/m2
07:40 4.3 °C 3.9 °C 1025.6 hPa Calm     97 % 0.0 mm 0 W/m2
07:45 4.2 °C 3.7 °C 1025.6 hPa Calm     97 % 0.0 mm 5 W/m2
07:50 4.3 °C 3.8 °C 1025.6 hPa Calm   1.6 km/h 97 % 0.0 mm 7 W/m2
07:55 4.3 °C 3.8 °C 1025.6 hPa Calm   1.6 km/h 97 % 0.0 mm 11 W/m2
08:00 4.2 °C 3.8 °C 1025.6 hPa Calm   1.6 km/h 97 % 0.0 mm 14 W/m2
08:05 4.2 °C 3.7 °C 1025.6 hPa Calm   1.6 km/h 97 % 0.0 mm 19 W/m2
08:10 4.1 °C 3.7 °C 1025.6 hPa Calm   1.6 km/h 97 % 0.0 mm 23 W/m2
08:20 4.2 °C 3.7 °C 1026.0 hPa Calm     97 % 0.0 mm 33 W/m2
08:25 4.2 °C 3.7 °C 1026.0 hPa Calm     97 % 0.0 mm 33 W/m2
08:30 4.4 °C 4.0 °C 1026.0 hPa Calm     97 % 0.0 mm 35 W/m2
08:35 4.6 °C 4.2 °C 1026.0 hPa Calm     97 % 0.0 mm 72 W/m2
08:40 4.8 °C 4.4 °C 1026.0 hPa Calm     97 % 0.0 mm 90 W/m2
08:45 5.1 °C 4.7 °C 1026.0 hPa Calm     97 % 0.0 mm 102 W/m2
08:50 5.3 °C 5.0 °C 1026.0 hPa Calm     98 % 0.0 mm 123 W/m2
08:55 5.6 °C 5.2 °C 1026.0 hPa North 1.6 km/h 1.6 km/h 97 % 0.0 mm 142 W/m2
09:00 6.0 °C 5.7 °C 1026.0 hPa North 1.6 km/h 1.6 km/h 98 % 0.0 mm 160 W/m2
09:05 6.7 °C 6.4 °C 1026.3 hPa Calm   1.6 km/h 98 % 0.0 mm 176 W/m2
09:10 7.1 °C 6.8 °C 1026.3 hPa Calm   1.6 km/h 98 % 0.0 mm 193 W/m2
09:15 7.6 °C 7.3 °C 1026.3 hPa Calm   1.6 km/h 98 % 0.0 mm 202 W/m2
09:20 8.1 °C 7.8 °C 1026.3 hPa Calm   3.2 km/h 98 % 0.0 mm 221 W/m2
09:25 8.3 °C 8.0 °C 1026.3 hPa Calm   3.2 km/h 98 % 0.0 mm 239 W/m2
09:30 8.5 °C 8.2 °C 1026.3 hPa Calm   1.6 km/h 98 % 0.0 mm 258 W/m2
09:35 8.8 °C 8.5 °C 1026.3 hPa Calm   3.2 km/h 98 % 0.0 mm 274 W/m2
09:40 9.0 °C 8.7 °C 1026.3 hPa Calm   3.2 km/h 98 % 0.0 mm 290 W/m2
09:45 9.2 °C 8.8 °C 1026.3 hPa Calm   1.6 km/h 97 % 0.0 mm 306 W/m2
09:50 9.5 °C 9.0 °C 1026.3 hPa Calm     97 % 0.0 mm 320 W/m2
09:55 9.9 °C 9.4 °C 1026.3 hPa Calm   1.6 km/h 97 % 0.0 mm 336 W/m2
10:00 10.1 °C 9.4 °C 1026.3 hPa Calm   1.6 km/h 96 % 0.0 mm 353 W/m2
10:10 10.9 °C 10.0 °C 1026.3 hPa Calm   3.2 km/h 94 % 0.0 mm 387 W/m2
10:15 11.1 °C 10.0 °C 1026.6 hPa ENE 1.6 km/h 4.8 km/h 93 % 0.0 mm 401 W/m2
10:20 11.3 °C 9.9 °C 1026.6 hPa Calm   4.8 km/h 91 % 0.0 mm 413 W/m2
10:25 11.7 °C 9.9 °C 1026.6 hPa East 1.6 km/h 6.4 km/h 89 % 0.0 mm 429 W/m2
10:30 12.1 °C 10.1 °C 1026.6 hPa Calm   6.4 km/h 88 % 0.0 mm 445 W/m2
10:35 12.4 °C 10.3 °C 1026.6 hPa SE 1.6 km/h 6.4 km/h 87 % 0.0 mm 459 W/m2
10:40 12.5 °C 10.2 °C 1026.6 hPa Calm   6.4 km/h 86 % 0.0 mm 475 W/m2
10:45 12.8 °C 10.4 °C 1026.6 hPa Calm   6.4 km/h 85 % 0.0 mm 489 W/m2
10:50 13.2 °C 10.9 °C 1026.6 hPa SSE 1.6 km/h 6.4 km/h 86 % 0.0 mm 501 W/m2
10:55 13.4 °C 10.6 °C 1026.6 hPa SE 3.2 km/h 8.0 km/h 83 % 0.0 mm 510 W/m2
11:00 13.7 °C 10.9 °C 1026.6 hPa SE 4.8 km/h 8.0 km/h 83 % 0.0 mm 527 W/m2
11:10 14.1 °C 10.7 °C 1026.6 hPa SE 1.6 km/h 8.0 km/h 80 % 0.0 mm 555 W/m2
11:15 14.2 °C 10.6 °C 1026.6 hPa SSE 3.2 km/h 8.0 km/h 79 % 0.0 mm 564 W/m2
11:20 14.5 °C 10.9 °C 1026.6 hPa ESE 3.2 km/h 8.0 km/h 79 % 0.0 mm 580 W/m2
11:25 14.7 °C 11.1 °C 1026.6 hPa SSE 6.4 km/h 8.0 km/h 79 % 0.0 mm 589 W/m2
11:30 14.9 °C 10.9 °C 1026.6 hPa SSE 3.2 km/h 8.0 km/h 77 % 0.0 mm 598 W/m2
11:40 15.2 °C 11.2 °C 1026.6 hPa East 3.2 km/h 8.0 km/h 77 % 0.0 mm 622 W/m2
11:45 15.2 °C 10.4 °C 1026.3 hPa Calm   3.2 km/h 73 % 0.0 mm 626 W/m2
11:50 15.3 °C 11.5 °C 1026.3 hPa WNW 3.2 km/h 8.0 km/h 78 % 0.0 mm 643 W/m2
11:55 15.4 °C 10.6 °C 1026.6 hPa WNW 3.2 km/h 8.0 km/h 73 % 0.0 mm 636 W/m2
12:05 16.1 °C 11.6 °C 1026.3 hPa WNW 1.6 km/h 8.0 km/h 75 % 0.0 mm 675 W/m2
12:10 15.9 °C 10.7 °C 1026.3 hPa West 6.4 km/h 9.7 km/h 71 % 0.0 mm 689 W/m2
12:15 15.9 °C 10.3 °C 1026.3 hPa SW 3.2 km/h 9.7 km/h 69 % 0.0 mm 693 W/m2
12:20 16.0 °C 9.2 °C 1026.3 hPa SW 4.8 km/h 6.4 km/h 64 % 0.0 mm 698 W/m2
12:25 16.2 °C 10.0 °C 1026.3 hPa WSW 3.2 km/h 9.7 km/h 67 % 0.0 mm 714 W/m2
12:30 16.2 °C 9.6 °C 1026.3 hPa West 6.4 km/h 9.7 km/h 65 % 0.0 mm 717 W/m2
12:35 16.8 °C 9.3 °C 1026.3 hPa NW 4.8 km/h 11.3 km/h 61 % 0.0 mm 717 W/m2
12:40 16.8 °C 9.3 °C 1026.3 hPa West 8.0 km/h 12.9 km/h 61 % 0.0 mm 719 W/m2
12:45 16.4 °C 9.6 °C 1026.3 hPa Calm   12.9 km/h 64 % 0.0 mm 715 W/m2
12:50 16.5 °C 9.7 °C 1026.3 hPa SW 9.7 km/h 11.3 km/h 64 % 0.0 mm 731 W/m2
12:55 16.3 °C 8.5 °C 1026.3 hPa SW 6.4 km/h 11.3 km/h 60 % 0.0 mm 737 W/m2
13:00 16.4 °C 10.1 °C 1026.3 hPa West 6.4 km/h 12.9 km/h 66 % 0.0 mm 742 W/m2
13:05 17.0 °C 10.6 °C 1026.3 hPa SW 4.8 km/h 12.9 km/h 66 % 0.0 mm 749 W/m2
13:10 17.3 °C 10.4 °C 1026.3 hPa WNW 8.0 km/h 9.7 km/h 64 % 0.0 mm 758 W/m2
13:15 17.0 °C 9.9 °C 1026.3 hPa WSW 9.7 km/h 11.3 km/h 63 % 0.0 mm 763 W/m2
13:20 16.9 °C 10.0 °C 1026.3 hPa WNW 6.4 km/h 12.9 km/h 64 % 0.0 mm 761 W/m2
13:25 16.7 °C 9.9 °C 1026.3 hPa West 4.8 km/h 14.5 km/h 64 % 0.0 mm 770 W/m2
13:35 16.4 °C 8.6 °C 1026.3 hPa West 9.7 km/h 14.5 km/h 60 % 0.0 mm 775 W/m2
13:45 17.0 °C 9.7 °C 1026.3 hPa WNW 9.7 km/h 14.5 km/h 62 % 0.0 mm 759 W/m2
13:50 16.9 °C 10.3 °C 1026.3 hPa WSW 8.0 km/h 14.5 km/h 65 % 0.0 mm 773 W/m2
13:55 16.4 °C 8.8 °C 1026.3 hPa West 1.6 km/h 16.1 km/h 61 % 0.0 mm 773 W/m2
14:00 16.6 °C 9.5 °C 1026.3 hPa West 9.7 km/h 16.1 km/h 63 % 0.0 mm 765 W/m2
14:05 16.9 °C 10.9 °C 1026.3 hPa WNW 4.8 km/h 14.5 km/h 68 % 0.0 mm 772 W/m2
14:10 16.9 °C 9.8 °C 1026.3 hPa WNW 8.0 km/h 12.9 km/h 63 % 0.0 mm 779 W/m2
14:20 16.9 °C 8.8 °C 1026.3 hPa WSW 14.5 km/h 14.5 km/h 59 % 0.0 mm 784 W/m2
14:25 16.2 °C 9.6 °C 1026.3 hPa West 8.0 km/h 17.7 km/h 65 % 0.0 mm 784 W/m2
14:30 16.4 °C 9.1 °C 1026.3 hPa NW 4.8 km/h 17.7 km/h 62 % 0.0 mm 777 W/m2
14:35 16.8 °C 9.3 °C 1026.3 hPa WSW 8.0 km/h 17.7 km/h 61 % 0.0 mm 777 W/m2
14:40 16.3 °C 8.5 °C 1026.3 hPa SW 9.7 km/h 14.5 km/h 60 % 0.0 mm 766 W/m2
14:45 15.9 °C 8.7 °C 1026.3 hPa WNW 6.4 km/h 16.1 km/h 62 % 0.0 mm 768 W/m2
14:50 16.4 °C 9.1 °C 1026.3 hPa WSW 11.3 km/h 16.1 km/h 62 % 0.0 mm 768 W/m2
14:55 16.2 °C 8.7 °C 1026.3 hPa West 8.0 km/h 16.1 km/h 61 % 0.0 mm 751 W/m2
15:05 16.5 °C 9.4 °C 1026.3 hPa West 6.4 km/h 14.5 km/h 63 % 0.0 mm 738 W/m2
15:10 16.4 °C 9.3 °C 1026.3 hPa West 4.8 km/h 16.1 km/h 63 % 0.0 mm 752 W/m2
15:15 16.0 °C 9.2 °C 1026.3 hPa West 6.4 km/h 16.1 km/h 64 % 0.0 mm 747 W/m2
15:20 16.6 °C 9.7 °C 1026.3 hPa WNW 4.8 km/h 16.1 km/h 64 % 0.0 mm 740 W/m2
15:25 16.4 °C 9.1 °C 1026.3 hPa NW 1.6 km/h 11.3 km/h 62 % 0.0 mm 735 W/m2
15:30 16.8 °C 9.5 °C 1026.3 hPa West 4.8 km/h 11.3 km/h 62 % 0.0 mm 728 W/m2
15:40 16.4 °C 9.8 °C 1026.3 hPa West 12.9 km/h 12.9 km/h 65 % 0.0 mm 710 W/m2
15:45 16.2 °C 9.3 °C 1026.3 hPa West 6.4 km/h 14.5 km/h 64 % 0.0 mm 710 W/m2
15:50 16.3 °C 9.9 °C 1026.3 hPa West 8.0 km/h 14.5 km/h 66 % 0.0 mm 680 W/m2
15:55 16.2 °C 10.3 °C 1026.3 hPa WSW 11.3 km/h 12.9 km/h 68 % 0.0 mm 694 W/m2
16:00 15.9 °C 9.5 °C 1026.3 hPa West 9.7 km/h 14.5 km/h 66 % 0.0 mm 671 W/m2
16:05 15.8 °C 9.7 °C 1026.3 hPa WSW 11.3 km/h 16.1 km/h 67 % 0.0 mm 645 W/m2
16:15 15.9 °C 9.8 °C 1026.0 hPa West 8.0 km/h 14.5 km/h 67 % 0.0 mm 657 W/m2
16:20 16.1 °C 10.1 °C 1026.0 hPa West 4.8 km/h 16.1 km/h 68 % 0.0 mm 663 W/m2
16:25 16.2 °C 10.0 °C 1026.0 hPa WSW 8.0 km/h 17.7 km/h 67 % 0.0 mm 629 W/m2
16:30 16.0 °C 9.6 °C 1026.0 hPa WNW 6.4 km/h 19.3 km/h 66 % 0.0 mm 645 W/m2
16:35 15.8 °C 9.9 °C 1026.0 hPa WNW 12.9 km/h 19.3 km/h 68 % 0.0 mm 626 W/m2
16:40 16.1 °C 10.2 °C 1026.0 hPa West 8.0 km/h 17.7 km/h 68 % 0.0 mm 577 W/m2
16:45 15.7 °C 9.8 °C 1026.0 hPa West 12.9 km/h 17.7 km/h 68 % 0.0 mm 564 W/m2
16:50 15.5 °C 9.8 °C 1026.0 hPa West 16.1 km/h 17.7 km/h 69 % 0.0 mm 564 W/m2
16:55 15.6 °C 9.9 °C 1026.0 hPa WNW 6.4 km/h 16.1 km/h 69 % 0.0 mm 550 W/m2
17:05 15.6 °C 9.7 °C 1026.0 hPa West 9.7 km/h 14.5 km/h 68 % 0.0 mm 489 W/m2
17:10 15.5 °C 9.6 °C 1026.0 hPa WNW 8.0 km/h 14.5 km/h 68 % 0.0 mm 417 W/m2
17:20 15.8 °C 10.6 °C 1026.0 hPa WSW 4.8 km/h 14.5 km/h 71 % 0.0 mm 332 W/m2
17:25 15.8 °C 10.6 °C 1026.0 hPa West 8.0 km/h 12.9 km/h 71 % 0.0 mm 322 W/m2
17:30 15.6 °C 10.4 °C 1026.0 hPa West 3.2 km/h 11.3 km/h 71 % 0.0 mm 269 W/m2
17:35 15.6 °C 9.9 °C 1025.6 hPa WSW 8.0 km/h 11.3 km/h 69 % 0.0 mm 188 W/m2
17:40 15.4 °C 9.6 °C 1025.6 hPa WNW 11.3 km/h 16.1 km/h 68 % 0.0 mm 211 W/m2
17:45 14.9 °C 10.1 °C 1026.0 hPa WNW 6.4 km/h 16.1 km/h 73 % 0.0 mm 281 W/m2
17:50 14.8 °C 10.0 °C 1026.0 hPa West 8.0 km/h 19.3 km/h 73 % 0.0 mm 171 W/m2
17:55 14.7 °C 10.1 °C 1025.6 hPa WNW 6.4 km/h 19.3 km/h 74 % 0.0 mm 176 W/m2
18:00 14.7 °C 9.7 °C 1026.0 hPa West 8.0 km/h 16.1 km/h 72 % 0.0 mm 183 W/m2
18:05 14.8 °C 9.8 °C 1025.6 hPa West 6.4 km/h 14.5 km/h 72 % 0.0 mm 223 W/m2
18:10 14.9 °C 10.1 °C 1025.6 hPa West 9.7 km/h 12.9 km/h 73 % 0.0 mm 260 W/m2
18:15 15.0 °C 10.6 °C 1025.6 hPa WSW 4.8 km/h 14.5 km/h 75 % 0.0 mm 327 W/m2
18:20 15.2 °C 10.4 °C 1025.6 hPa West 4.8 km/h 14.5 km/h 73 % 0.0 mm 323 W/m2
18:25 15.3 °C 10.1 °C 1025.6 hPa NW 8.0 km/h 14.5 km/h 71 % 0.0 mm 278 W/m2
18:30 15.2 °C 10.2 °C 1025.6 hPa WSW 11.3 km/h 11.3 km/h 72 % 0.0 mm 213 W/m2
18:35 14.9 °C 10.1 °C 1025.6 hPa West 8.0 km/h 12.9 km/h 73 % 0.0 mm 190 W/m2
18:40 14.8 °C 10.0 °C 1025.6 hPa WNW 4.8 km/h 12.9 km/h 73 % 0.0 mm 158 W/m2
18:45 14.6 °C 9.8 °C 1025.6 hPa West 8.0 km/h 12.9 km/h 73 % 0.0 mm 156 W/m2
18:50 14.4 °C 9.9 °C 1025.6 hPa West 14.5 km/h 16.1 km/h 74 % 0.0 mm 144 W/m2
18:55 14.4 °C 10.0 °C 1025.6 hPa WNW 6.4 km/h 16.1 km/h 75 % 0.0 mm 130 W/m2
19:00 14.4 °C 10.1 °C 1025.6 hPa NW 8.0 km/h 14.5 km/h 75 % 0.0 mm 125 W/m2
19:05 14.4 °C 10.1 °C 1025.6 hPa West 8.0 km/h 11.3 km/h 75 % 0.0 mm 118 W/m2
19:10 14.3 °C 10.0 °C 1025.6 hPa WNW 4.8 km/h 9.7 km/h 75 % 0.0 mm 111 W/m2
19:15 14.3 °C 9.9 °C 1025.6 hPa West 4.8 km/h 9.7 km/h 75 % 0.0 mm 104 W/m2
19:20 14.2 °C 9.8 °C 1025.6 hPa WNW 3.2 km/h 9.7 km/h 75 % 0.0 mm 97 W/m2
19:30 14.0 °C 9.8 °C 1025.6 hPa WNW 3.2 km/h 11.3 km/h 76 % 0.0 mm 79 W/m2
19:35 13.9 °C 9.7 °C 1025.6 hPa Calm   11.3 km/h 76 % 0.0 mm 70 W/m2
19:40 13.7 °C 9.8 °C 1025.6 hPa West 6.4 km/h 8.0 km/h 77 % 0.0 mm 62 W/m2
19:45 13.6 °C 9.8 °C 1025.6 hPa West 6.4 km/h 9.7 km/h 78 % 0.0 mm 54 W/m2
19:50 13.6 °C 9.8 °C 1025.6 hPa West 4.8 km/h 11.3 km/h 78 % 0.0 mm 49 W/m2
19:55 13.4 °C 10.1 °C 1025.6 hPa Calm   11.3 km/h 80 % 0.0 mm 42 W/m2
20:00 13.3 °C 9.9 °C 1025.6 hPa West 3.2 km/h 8.0 km/h 80 % 0.0 mm 37 W/m2
20:05 13.2 °C 10.0 °C 1025.6 hPa West 3.2 km/h 8.0 km/h 81 % 0.0 mm 33 W/m2
20:10 13.0 °C 10.0 °C 1025.6 hPa West 4.8 km/h 6.4 km/h 82 % 0.0 mm 26 W/m2
20:20 12.8 °C 9.8 °C 1025.6 hPa WNW 4.8 km/h 8.0 km/h 82 % 0.0 mm 18 W/m2
20:25 12.7 °C 9.9 °C 1025.6 hPa West 1.6 km/h 8.0 km/h 83 % 0.0 mm 12 W/m2
20:30 12.4 °C 9.8 °C 1025.6 hPa West 1.6 km/h 8.0 km/h 84 % 0.0 mm 9 W/m2
20:35 12.3 °C 9.7 °C 1025.6 hPa West 1.6 km/h 6.4 km/h 84 % 0.0 mm 5 W/m2
20:40 12.2 °C 9.7 °C 1025.6 hPa West 1.6 km/h 4.8 km/h 85 % 0.0 mm 0 W/m2
20:45 11.8 °C 9.4 °C 1025.6 hPa Calm   4.8 km/h 85 % 0.0 mm 0 W/m2
20:50 11.4 °C 9.3 °C 1025.6 hPa Calm   4.8 km/h 87 % 0.0 mm 0 W/m2
20:55 11.2 °C 9.3 °C 1025.6 hPa Calm   4.8 km/h 88 % 0.0 mm 0 W/m2
21:00 10.9 °C 9.0 °C 1025.6 hPa Calm   4.8 km/h 88 % 0.0 mm 0 W/m2
21:05 10.7 °C 8.9 °C 1025.6 hPa West 1.6 km/h 1.6 km/h 89 % 0.0 mm 0 W/m2
21:10 10.3 °C 8.8 °C 1025.6 hPa Calm   3.2 km/h 90 % 0.0 mm 0 W/m2
21:15 10.3 °C 8.7 °C 1025.6 hPa West 1.6 km/h 4.8 km/h 90 % 0.0 mm 0 W/m2
21:20 10.2 °C 8.6 °C 1025.6 hPa Calm   4.8 km/h 90 % 0.0 mm 0 W/m2
21:25 10.1 °C 8.5 °C 1026.0 hPa West 1.6 km/h 4.8 km/h 90 % 0.0 mm 0 W/m2
21:30 10.1 °C 8.5 °C 1026.0 hPa Calm   4.8 km/h 90 % 0.0 mm 0 W/m2
21:35 9.9 °C 8.5 °C 1026.0 hPa Calm   3.2 km/h 91 % 0.0 mm 0 W/m2
21:40 9.7 °C 8.3 °C 1026.0 hPa Calm   4.8 km/h 91 % 0.0 mm 0 W/m2
21:45 9.6 °C 8.2 °C 1026.0 hPa Calm   4.8 km/h 91 % 0.0 mm 0 W/m2
21:50 9.5 °C 8.3 °C 1026.0 hPa Calm   3.2 km/h 92 % 0.0 mm 0 W/m2
21:55 9.5 °C 8.3 °C 1026.0 hPa WNW 1.6 km/h 3.2 km/h 92 % 0.0 mm 0 W/m2
22:00 9.3 °C 8.0 °C 1026.0 hPa WNW 3.2 km/h 4.8 km/h 92 % 0.0 mm 0 W/m2
22:05 9.1 °C 7.8 °C 1026.0 hPa WNW 1.6 km/h 4.8 km/h 92 % 0.0 mm 0 W/m2
22:10 9.1 °C 7.8 °C 1026.0 hPa Calm   4.8 km/h 92 % 0.0 mm 0 W/m2
22:15 9.1 °C 7.9 °C 1026.0 hPa WNW 4.8 km/h 6.4 km/h 92 % 0.0 mm 0 W/m2
22:20 9.1 °C 8.0 °C 1026.3 hPa WNW 1.6 km/h 6.4 km/h 93 % 0.0 mm 0 W/m2
22:25 9.0 °C 7.9 °C 1026.3 hPa Calm   6.4 km/h 93 % 0.0 mm 0 W/m2
22:35 8.9 °C 7.9 °C 1026.3 hPa WNW 1.6 km/h 8.0 km/h 93 % 0.0 mm 0 W/m2
22:40 9.0 °C 7.9 °C 1026.3 hPa NW 6.4 km/h 8.0 km/h 93 % 0.0 mm 0 W/m2
22:45 9.1 °C 8.0 °C 1026.3 hPa NW 4.8 km/h 8.0 km/h 93 % 0.0 mm 0 W/m2
22:50 9.3 °C 8.2 °C 1026.3 hPa NNW 6.4 km/h 9.7 km/h 93 % 0.0 mm 0 W/m2
22:55 9.5 °C 8.4 °C 1026.3 hPa WNW 6.4 km/h 11.3 km/h 93 % 0.0 mm 0 W/m2
23:00 9.6 °C 8.3 °C 1026.6 hPa NW 3.2 km/h 11.3 km/h 92 % 0.0 mm 0 W/m2
23:05 9.8 °C 8.5 °C 1026.6 hPa Calm   8.0 km/h 92 % 0.0 mm 0 W/m2
23:10 9.7 °C 8.4 °C 1026.6 hPa WNW 1.6 km/h 8.0 km/h 92 % 0.0 mm 0 W/m2
23:20 9.8 °C 8.5 °C 1026.6 hPa WNW 4.8 km/h 6.4 km/h 92 % 0.0 mm 0 W/m2
23:25 9.7 °C 8.5 °C 1026.6 hPa WNW 8.0 km/h 9.7 km/h 92 % 0.0 mm 0 W/m2
23:30 9.8 °C 8.5 °C 1026.6 hPa WNW 6.4 km/h 9.7 km/h 92 % 0.0 mm 0 W/m2
23:35 9.9 °C 8.7 °C 1026.6 hPa Calm   9.7 km/h 92 % 0.0 mm 0 W/m2
23:40 10.0 °C 8.8 °C 1026.6 hPa NW 3.2 km/h 8.0 km/h 92 % 0.0 mm 0 W/m2
23:45 10.0 °C 8.8 °C 1026.6 hPa NW 4.8 km/h 9.7 km/h 92 % 0.0 mm 0 W/m2
23:50 9.9 °C 8.7 °C 1026.6 hPa NW 3.2 km/h 9.7 km/h 92 % 0.0 mm 0 W/m2
23:55 9.9 °C 8.7 °C 1026.6 hPa NW 4.8 km/h 8.0 km/h 92 % 0.0 mm 0 W/m2
Avec l'autorisation de Weather Underground - 1.5 mb